Terminal Aerodrome Forecast
Issued by NWS

Home | Current Version | Previous Version | Text Only | Print | Product List | Glossary On
Versions: 1 2 3 4 5 6 7 8 9 10 11 12 13 14 15 16 17 18 19 20 21 22 23 24 25 26 27 28 29 30 31 32 33 34 35 36 37 38 39 40 41 42 43 44 45 46 47 48 49 50
000
FTUS41 KCTP 271432 AAA
TAFUNV
TAF AMD
KUNV 271432Z 2715/2812 00000KT P6SM OVC010
      TEMPO 2717/2721 SCT010 BKN025
     FM272100 19010G15KT P6SM BKN035
     FM280000 22008KT 5SM TSRA BKN050CB
     FM280100 24007KT 5SM -SHRA OVC040
     FM280300 26005KT P6SM BKN035=

USA.gov is the U.S. government's official web portal to all federal, state and local government web resources and services.